sensor_id;sensor_type;location;lat;lon;timestamp;P1;durP1;ratioP1;P2;durP2;ratioP2
48805;SDS011;34625;47.176;27.548;2023-05-21T00:00:00;6.00;;;3.85;;
48805;SDS011;34625;47.176;27.548;2023-05-21T00:02:37;6.43;;;4.28;;
48805;SDS011;34625;47.176;27.548;2023-05-21T00:05:04;6.65;;;4.03;;
48805;SDS011;34625;47.176;27.548;2023-05-21T00:07:30;7.65;;;4.10;;
48805;SDS011;34625;47.176;27.548;2023-05-21T00:09:57;6.95;;;4.18;;
48805;SDS011;34625;47.176;27.548;2023-05-21T00:12:23;6.20;;;4.15;;
48805;SDS011;34625;47.176;27.548;2023-05-21T00:14:49;4.63;;;3.95;;
48805;SDS011;34625;47.176;27.548;2023-05-21T00:17:15;5.63;;;4.38;;
48805;SDS011;34625;47.176;27.548;2023-05-21T00:19:42;7.03;;;4.38;;
48805;SDS011;34625;47.176;27.548;2023-05-21T00:22:08;5.80;;;4.32;;
48805;SDS011;34625;47.176;27.548;2023-05-21T00:24:34;4.82;;;4.13;;
48805;SDS011;34625;47.176;27.548;2023-05-21T00:27:00;6.13;;;4.43;;
48805;SDS011;34625;47.176;27.548;2023-05-21T00:29:26;10.65;;;4.95;;
48805;SDS011;34625;47.176;27.548;2023-05-21T00:31:54;8.10;;;4.47;;
48805;SDS011;34625;47.176;27.548;2023-05-21T00:34:20;5.35;;;4.15;;
48805;SDS011;34625;47.176;27.548;2023-05-21T00:36:46;5.63;;;4.13;;
48805;SDS011;34625;47.176;27.548;2023-05-21T00:39:13;9.48;;;3.78;;
48805;SDS011;34625;47.176;27.548;2023-05-21T00:41:39;5.25;;;3.83;;
48805;SDS011;34625;47.176;27.548;2023-05-21T00:44:07;5.43;;;3.72;;
48805;SDS011;34625;47.176;27.548;2023-05-21T00:46:34;6.30;;;4.50;;
48805;SDS011;34625;47.176;27.548;2023-05-21T00:49:01;6.53;;;4.38;;
48805;SDS011;34625;47.176;27.548;2023-05-21T00:51:27;6.07;;;4.57;;
48805;SDS011;34625;47.176;27.548;2023-05-21T00:53:54;5.45;;;4.65;;
48805;SDS011;34625;47.176;27.548;2023-05-21T00:56:21;7.35;;;4.78;;
48805;SDS011;34625;47.176;27.548;2023-05-21T00:58:49;8.15;;;4.82;;
48805;SDS011;34625;47.176;27.548;2023-05-21T01:01:18;9.35;;;4.78;;
48805;SDS011;34625;47.176;27.548;2023-05-21T01:03:44;6.55;;;4.80;;
48805;SDS011;34625;47.176;27.548;2023-05-21T01:06:12;6.72;;;4.32;;
48805;SDS011;34625;47.176;27.548;2023-05-21T01:08:40;5.75;;;4.78;;
48805;SDS011;34625;47.176;27.548;2023-05-21T01:11:06;7.15;;;4.43;;
48805;SDS011;34625;47.176;27.548;2023-05-21T01:13:35;8.70;;;4.40;;
48805;SDS011;34625;47.176;27.548;2023-05-21T01:16:03;5.18;;;4.60;;
48805;SDS011;34625;47.176;27.548;2023-05-21T01:18:33;7.20;;;5.07;;
48805;SDS011;34625;47.176;27.548;2023-05-21T01:21:01;6.00;;;4.25;;
48805;SDS011;34625;47.176;27.548;2023-05-21T01:23:28;7.22;;;4.72;;
48805;SDS011;34625;47.176;27.548;2023-05-21T01:25:54;4.20;;;3.80;;
48805;SDS011;34625;47.176;27.548;2023-05-21T01:28:20;6.13;;;4.32;;
48805;SDS011;34625;47.176;27.548;2023-05-21T01:30:47;6.53;;;4.40;;
48805;SDS011;34625;47.176;27.548;2023-05-21T01:33:27;4.55;;;3.50;;
48805;SDS011;34625;47.176;27.548;2023-05-21T01:41:11;7.68;;;4.18;;
48805;SDS011;34625;47.176;27.548;2023-05-21T01:43:38;8.05;;;3.38;;
48805;SDS011;34625;47.176;27.548;2023-05-21T01:46:07;5.05;;;3.13;;
48805;SDS011;34625;47.176;27.548;2023-05-21T01:48:35;4.22;;;3.15;;
48805;SDS011;34625;47.176;27.548;2023-05-21T01:51:03;4.60;;;3.28;;
48805;SDS011;34625;47.176;27.548;2023-05-21T01:53:30;11.85;;;3.47;;
48805;SDS011;34625;47.176;27.548;2023-05-21T01:55:56;3.85;;;3.25;;
48805;SDS011;34625;47.176;27.548;2023-05-21T01:58:23;7.00;;;3.30;;
48805;SDS011;34625;47.176;27.548;2023-05-21T02:00:50;6.43;;;3.95;;
48805;SDS011;34625;47.176;27.548;2023-05-21T02:03:16;5.63;;;4.20;;
48805;SDS011;34625;47.176;27.548;2023-05-21T02:05:43;8.38;;;4.60;;
48805;SDS011;34625;47.176;27.548;2023-05-21T02:08:10;10.55;;;4.63;;
48805;SDS011;34625;47.176;27.548;2023-05-21T02:10:37;8.73;;;4.45;;
48805;SDS011;34625;47.176;27.548;2023-05-21T02:13:03;9.40;;;4.88;;
48805;SDS011;34625;47.176;27.548;2023-05-21T02:15:29;5.18;;;4.20;;
48805;SDS011;34625;47.176;27.548;2023-05-21T02:17:58;5.10;;;3.90;;
48805;SDS011;34625;47.176;27.548;2023-05-21T02:20:24;7.03;;;4.75;;
48805;SDS011;34625;47.176;27.548;2023-05-21T02:22:50;5.70;;;4.15;;
48805;SDS011;34625;47.176;27.548;2023-05-21T02:25:17;6.30;;;4.07;;
48805;SDS011;34625;47.176;27.548;2023-05-21T02:27:44;7.60;;;4.47;;
48805;SDS011;34625;47.176;27.548;2023-05-21T02:30:11;9.57;;;4.45;;
48805;SDS011;34625;47.176;27.548;2023-05-21T02:32:39;8.18;;;4.32;;
48805;SDS011;34625;47.176;27.548;2023-05-21T02:35:09;6.57;;;4.10;;
48805;SDS011;34625;47.176;27.548;2023-05-21T02:37:36;7.47;;;3.83;;
48805;SDS011;34625;47.176;27.548;2023-05-21T02:40:04;4.68;;;3.17;;
48805;SDS011;34625;47.176;27.548;2023-05-21T02:42:32;4.28;;;3.22;;
48805;SDS011;34625;47.176;27.548;2023-05-21T02:44:58;5.97;;;3.38;;
48805;SDS011;34625;47.176;27.548;2023-05-21T02:47:25;6.90;;;3.80;;
48805;SDS011;34625;47.176;27.548;2023-05-21T02:49:51;5.15;;;3.25;;
48805;SDS011;34625;47.176;27.548;2023-05-21T02:52:18;3.72;;;3.03;;
48805;SDS011;34625;47.176;27.548;2023-05-21T02:54:48;5.82;;;4.03;;
48805;SDS011;34625;47.176;27.548;2023-05-21T02:57:14;3.67;;;2.90;;
48805;SDS011;34625;47.176;27.548;2023-05-21T02:59:43;6.18;;;3.00;;
48805;SDS011;34625;47.176;27.548;2023-05-21T03:02:09;7.78;;;2.97;;
48805;SDS011;34625;47.176;27.548;2023-05-21T03:04:36;5.80;;;2.80;;
48805;SDS011;34625;47.176;27.548;2023-05-21T03:07:14;4.97;;;2.60;;
48805;SDS011;34625;47.176;27.548;2023-05-21T03:09:43;3.72;;;3.15;;
48805;SDS011;34625;47.176;27.548;2023-05-21T03:12:10;5.40;;;2.42;;
48805;SDS011;34625;47.176;27.548;2023-05-21T03:14:36;3.33;;;2.55;;
48805;SDS011;34625;47.176;27.548;2023-05-21T03:17:02;3.60;;;3.03;;
48805;SDS011;34625;47.176;27.548;2023-05-21T03:19:33;5.85;;;3.13;;
48805;SDS011;34625;47.176;27.548;2023-05-21T03:22:02;5.07;;;2.80;;
48805;SDS011;34625;47.176;27.548;2023-05-21T03:24:29;5.10;;;2.58;;
48805;SDS011;34625;47.176;27.548;2023-05-21T03:26:56;5.57;;;2.92;;
48805;SDS011;34625;47.176;27.548;2023-05-21T03:29:23;4.00;;;2.10;;
48805;SDS011;34625;47.176;27.548;2023-05-21T03:31:50;5.95;;;2.42;;
48805;SDS011;34625;47.176;27.548;2023-05-21T03:34:18;3.45;;;2.13;;
48805;SDS011;34625;47.176;27.548;2023-05-21T03:36:45;4.90;;;2.30;;
48805;SDS011;34625;47.176;27.548;2023-05-21T03:39:12;4.63;;;2.40;;
48805;SDS011;34625;47.176;27.548;2023-05-21T03:41:39;3.20;;;2.38;;
48805;SDS011;34625;47.176;27.548;2023-05-21T03:44:08;4.82;;;2.50;;
48805;SDS011;34625;47.176;27.548;2023-05-21T03:46:46;8.98;;;2.42;;
48805;SDS011;34625;47.176;27.548;2023-05-21T03:49:22;5.20;;;2.88;;
48805;SDS011;34625;47.176;27.548;2023-05-21T03:51:50;4.10;;;2.30;;
48805;SDS011;34625;47.176;27.548;2023-05-21T03:54:18;2.90;;;2.22;;
48805;SDS011;34625;47.176;27.548;2023-05-21T03:56:45;5.03;;;2.78;;
48805;SDS011;34625;47.176;27.548;2023-05-21T03:59:11;4.88;;;2.03;;
48805;SDS011;34625;47.176;27.548;2023-05-21T04:01:37;3.47;;;2.10;;
48805;SDS011;34625;47.176;27.548;2023-05-21T04:04:04;4.93;;;2.40;;
48805;SDS011;34625;47.176;27.548;2023-05-21T04:06:31;2.80;;;2.03;;
48805;SDS011;34625;47.176;27.548;2023-05-21T04:08:57;2.83;;;2.30;;
48805;SDS011;34625;47.176;27.548;2023-05-21T04:11:23;3.42;;;1.98;;
48805;SDS011;34625;47.176;27.548;2023-05-21T04:13:49;3.60;;;2.20;;
48805;SDS011;34625;47.176;27.548;2023-05-21T04:16:15;3.15;;;2.05;;
48805;SDS011;34625;47.176;27.548;2023-05-21T04:18:44;4.68;;;2.53;;
48805;SDS011;34625;47.176;27.548;2023-05-21T04:21:10;6.07;;;1.83;;
48805;SDS011;34625;47.176;27.548;2023-05-21T04:23:37;1.80;;;1.60;;
48805;SDS011;34625;47.176;27.548;2023-05-21T04:26:08;3.88;;;2.10;;
48805;SDS011;34625;47.176;27.548;2023-05-21T04:28:38;2.35;;;1.73;;
48805;SDS011;34625;47.176;27.548;2023-05-21T04:31:07;2.95;;;2.20;;
48805;SDS011;34625;47.176;27.548;2023-05-21T04:33:33;3.83;;;2.00;;
48805;SDS011;34625;47.176;27.548;2023-05-21T04:36:00;6.05;;;2.55;;
48805;SDS011;34625;47.176;27.548;2023-05-21T04:38:28;3.17;;;1.63;;
48805;SDS011;34625;47.176;27.548;2023-05-21T04:40:54;3.63;;;2.28;;
48805;SDS011;34625;47.176;27.548;2023-05-21T04:43:22;3.28;;;1.70;;
48805;SDS011;34625;47.176;27.548;2023-05-21T04:45:55;3.00;;;1.90;;
48805;SDS011;34625;47.176;27.548;2023-05-21T04:48:22;5.55;;;2.20;;
48805;SDS011;34625;47.176;27.548;2023-05-21T04:50:49;3.72;;;2.38;;
48805;SDS011;34625;47.176;27.548;2023-05-21T04:53:16;1.92;;;1.52;;
48805;SDS011;34625;47.176;27.548;2023-05-21T04:55:42;4.72;;;2.13;;
48805;SDS011;34625;47.176;27.548;2023-05-21T04:58:08;2.67;;;1.90;;
48805;SDS011;34625;47.176;27.548;2023-05-21T05:00:37;2.00;;;1.60;;
48805;SDS011;34625;47.176;27.548;2023-05-21T05:03:04;3.90;;;2.13;;
48805;SDS011;34625;47.176;27.548;2023-05-21T05:05:30;2.55;;;1.95;;
48805;SDS011;34625;47.176;27.548;2023-05-21T05:07:56;2.97;;;2.28;;
48805;SDS011;34625;47.176;27.548;2023-05-21T05:10:23;2.42;;;1.83;;
48805;SDS011;34625;47.176;27.548;2023-05-21T05:12:50;3.88;;;2.00;;
48805;SDS011;34625;47.176;27.548;2023-05-21T05:15:17;2.55;;;1.50;;
48805;SDS011;34625;47.176;27.548;2023-05-21T05:17:43;2.25;;;1.83;;
48805;SDS011;34625;47.176;27.548;2023-05-21T05:20:09;2.72;;;1.60;;
48805;SDS011;34625;47.176;27.548;2023-05-21T05:22:36;3.35;;;1.50;;
48805;SDS011;34625;47.176;27.548;2023-05-21T05:25:02;3.22;;;2.10;;
48805;SDS011;34625;47.176;27.548;2023-05-21T05:27:28;2.90;;;1.42;;
48805;SDS011;34625;47.176;27.548;2023-05-21T05:29:55;2.70;;;1.80;;
48805;SDS011;34625;47.176;27.548;2023-05-21T05:32:21;4.40;;;2.33;;
48805;SDS011;34625;47.176;27.548;2023-05-21T05:34:47;6.25;;;2.30;;
48805;SDS011;34625;47.176;27.548;2023-05-21T05:37:13;3.13;;;1.75;;
48805;SDS011;34625;47.176;27.548;2023-05-21T05:39:40;4.22;;;2.00;;
48805;SDS011;34625;47.176;27.548;2023-05-21T05:42:06;5.07;;;1.52;;
48805;SDS011;34625;47.176;27.548;2023-05-21T05:44:32;2.03;;;1.55;;
48805;SDS011;34625;47.176;27.548;2023-05-21T05:46:58;4.00;;;1.50;;
48805;SDS011;34625;47.176;27.548;2023-05-21T05:49:24;3.38;;;1.30;;
48805;SDS011;34625;47.176;27.548;2023-05-21T05:51:50;4.55;;;1.80;;
48805;SDS011;34625;47.176;27.548;2023-05-21T05:54:16;7.97;;;1.60;;
48805;SDS011;34625;47.176;27.548;2023-05-21T05:56:43;1.48;;;1.33;;
48805;SDS011;34625;47.176;27.548;2023-05-21T05:59:09;1.92;;;1.40;;
48805;SDS011;34625;47.176;27.548;2023-05-21T06:01:37;4.82;;;1.90;;
48805;SDS011;34625;47.176;27.548;2023-05-21T06:04:04;3.45;;;2.10;;
48805;SDS011;34625;47.176;27.548;2023-05-21T06:06:30;3.05;;;2.30;;
48805;SDS011;34625;47.176;27.548;2023-05-21T06:08:56;3.20;;;2.90;;
48805;SDS011;34625;47.176;27.548;2023-05-21T06:11:24;0.93;;;0.88;;
48805;SDS011;34625;47.176;27.548;2023-05-21T06:13:50;2.35;;;2.03;;
48805;SDS011;34625;47.176;27.548;2023-05-21T06:16:17;9.52;;;2.42;;
48805;SDS011;34625;47.176;27.548;2023-05-21T06:18:43;2.17;;;1.65;;
48805;SDS011;34625;47.176;27.548;2023-05-21T06:21:09;3.03;;;2.33;;
48805;SDS011;34625;47.176;27.548;2023-05-21T06:23:35;2.90;;;1.98;;
48805;SDS011;34625;47.176;27.548;2023-05-21T06:26:02;6.57;;;1.83;;
48805;SDS011;34625;47.176;27.548;2023-05-21T06:28:30;1.67;;;1.55;;
48805;SDS011;34625;47.176;27.548;2023-05-21T06:30:57;3.47;;;2.20;;
48805;SDS011;34625;47.176;27.548;2023-05-21T06:33:24;1.63;;;1.52;;
48805;SDS011;34625;47.176;27.548;2023-05-21T06:35:51;5.18;;;2.08;;
48805;SDS011;34625;47.176;27.548;2023-05-21T06:38:18;2.00;;;1.40;;
48805;SDS011;34625;47.176;27.548;2023-05-21T06:40:44;2.33;;;1.55;;
48805;SDS011;34625;47.176;27.548;2023-05-21T06:43:17;3.08;;;2.03;;
48805;SDS011;34625;47.176;27.548;2023-05-21T06:46:01;2.30;;;1.60;;
48805;SDS011;34625;47.176;27.548;2023-05-21T06:48:38;6.03;;;2.15;;
48805;SDS011;34625;47.176;27.548;2023-05-21T06:51:04;1.90;;;1.70;;
48805;SDS011;34625;47.176;27.548;2023-05-21T06:53:30;4.22;;;2.40;;
48805;SDS011;34625;47.176;27.548;2023-05-21T06:55:56;6.28;;;2.00;;
48805;SDS011;34625;47.176;27.548;2023-05-21T06:58:34;2.08;;;0.90;;
48805;SDS011;34625;47.176;27.548;2023-05-21T07:01:00;1.27;;;1.25;;
48805;SDS011;34625;47.176;27.548;2023-05-21T07:03:26;2.92;;;2.33;;
48805;SDS011;34625;47.176;27.548;2023-05-21T07:05:52;1.42;;;1.33;;
48805;SDS011;34625;47.176;27.548;2023-05-21T07:08:19;0.88;;;0.88;;
48805;SDS011;34625;47.176;27.548;2023-05-21T07:10:45;0.77;;;0.70;;
48805;SDS011;34625;47.176;27.548;2023-05-21T07:13:11;2.10;;;1.60;;
48805;SDS011;34625;47.176;27.548;2023-05-21T07:15:37;2.42;;;1.50;;
48805;SDS011;34625;47.176;27.548;2023-05-21T07:18:03;4.65;;;1.85;;
48805;SDS011;34625;47.176;27.548;2023-05-21T07:20:29;2.63;;;1.85;;
48805;SDS011;34625;47.176;27.548;2023-05-21T07:22:59;3.00;;;2.10;;
48805;SDS011;34625;47.176;27.548;2023-05-21T07:25:25;8.38;;;2.17;;
48805;SDS011;34625;47.176;27.548;2023-05-21T07:27:51;3.08;;;2.33;;
48805;SDS011;34625;47.176;27.548;2023-05-21T07:30:18;3.05;;;1.80;;
48805;SDS011;34625;47.176;27.548;2023-05-21T07:32:46;2.85;;;1.98;;
48805;SDS011;34625;47.176;27.548;2023-05-21T07:35:12;3.08;;;2.00;;
48805;SDS011;34625;47.176;27.548;2023-05-21T07:37:38;3.30;;;1.88;;
48805;SDS011;34625;47.176;27.548;2023-05-21T07:40:05;4.25;;;1.52;;
48805;SDS011;34625;47.176;27.548;2023-05-21T07:42:33;3.75;;;2.65;;
48805;SDS011;34625;47.176;27.548;2023-05-21T07:45:00;4.45;;;2.35;;
48805;SDS011;34625;47.176;27.548;2023-05-21T07:47:28;3.50;;;2.17;;
48805;SDS011;34625;47.176;27.548;2023-05-21T07:49:54;2.88;;;2.03;;
48805;SDS011;34625;47.176;27.548;2023-05-21T07:52:20;2.40;;;1.90;;
48805;SDS011;34625;47.176;27.548;2023-05-21T07:54:46;5.22;;;2.40;;
48805;SDS011;34625;47.176;27.548;2023-05-21T07:57:13;6.35;;;3.42;;
48805;SDS011;34625;47.176;27.548;2023-05-21T08:00:08;5.43;;;1.90;;
48805;SDS011;34625;47.176;27.548;2023-05-21T08:02:50;2.40;;;2.20;;
48805;SDS011;34625;47.176;27.548;2023-05-21T08:05:16;2.55;;;2.00;;
48805;SDS011;34625;47.176;27.548;2023-05-21T08:07:43;3.97;;;2.17;;
48805;SDS011;34625;47.176;27.548;2023-05-21T08:10:09;4.28;;;2.53;;
48805;SDS011;34625;47.176;27.548;2023-05-21T08:12:35;2.95;;;1.90;;
48805;SDS011;34625;47.176;27.548;2023-05-21T08:15:03;2.90;;;2.35;;
48805;SDS011;34625;47.176;27.548;2023-05-21T08:17:30;3.75;;;2.15;;
48805;SDS011;34625;47.176;27.548;2023-05-21T08:19:56;1.85;;;1.70;;
48805;SDS011;34625;47.176;27.548;2023-05-21T08:22:22;2.65;;;2.10;;
48805;SDS011;34625;47.176;27.548;2023-05-21T08:24:48;2.55;;;2.35;;
48805;SDS011;34625;47.176;27.548;2023-05-21T08:27:14;2.90;;;1.83;;
48805;SDS011;34625;47.176;27.548;2023-05-21T08:29:41;4.88;;;2.17;;
48805;SDS011;34625;47.176;27.548;2023-05-21T08:32:09;3.70;;;2.40;;
48805;SDS011;34625;47.176;27.548;2023-05-21T08:34:35;4.15;;;2.30;;
48805;SDS011;34625;47.176;27.548;2023-05-21T08:37:21;5.07;;;2.40;;
48805;SDS011;34625;47.176;27.548;2023-05-21T08:40:10;2.85;;;2.55;;
48805;SDS011;34625;47.176;27.548;2023-05-21T08:42:44;5.97;;;2.90;;
48805;SDS011;34625;47.176;27.548;2023-05-21T08:45:21;3.70;;;2.38;;
48805;SDS011;34625;47.176;27.548;2023-05-21T08:47:53;4.72;;;2.80;;
48805;SDS011;34625;47.176;27.548;2023-05-21T08:50:23;2.90;;;2.60;;
48805;SDS011;34625;47.176;27.548;2023-05-21T08:52:53;2.67;;;2.10;;
48805;SDS011;34625;47.176;27.548;2023-05-21T08:55:19;3.40;;;2.20;;
48805;SDS011;34625;47.176;27.548;2023-05-21T08:57:49;4.72;;;2.75;;
48805;SDS011;34625;47.176;27.548;2023-05-21T09:00:17;3.30;;;2.38;;
48805;SDS011;34625;47.176;27.548;2023-05-21T09:02:46;3.30;;;2.30;;
48805;SDS011;34625;47.176;27.548;2023-05-21T09:05:13;2.30;;;2.10;;
48805;SDS011;34625;47.176;27.548;2023-05-21T09:10:33;3.33;;;1.95;;
48805;SDS011;34625;47.176;27.548;2023-05-21T09:13:01;4.03;;;2.20;;
48805;SDS011;34625;47.176;27.548;2023-05-21T09:15:28;1.58;;;1.10;;
48805;SDS011;34625;47.176;27.548;2023-05-21T09:17:55;2.10;;;1.88;;
48805;SDS011;34625;47.176;27.548;2023-05-21T09:20:39;8.48;;;2.50;;
48805;SDS011;34625;47.176;27.548;2023-05-21T09:23:06;10.02;;;2.45;;
48805;SDS011;34625;47.176;27.548;2023-05-21T09:25:37;3.45;;;2.13;;
48805;SDS011;34625;47.176;27.548;2023-05-21T09:28:12;12.60;;;2.88;;
48805;SDS011;34625;47.176;27.548;2023-05-21T09:30:43;4.10;;;2.45;;
48805;SDS011;34625;47.176;27.548;2023-05-21T09:33:26;5.45;;;1.73;;
48805;SDS011;34625;47.176;27.548;2023-05-21T09:35:56;2.70;;;2.15;;
48805;SDS011;34625;47.176;27.548;2023-05-21T09:38:23;3.97;;;2.22;;
48805;SDS011;34625;47.176;27.548;2023-05-21T09:40:50;4.07;;;1.83;;
48805;SDS011;34625;47.176;27.548;2023-05-21T09:43:21;4.40;;;2.40;;
48805;SDS011;34625;47.176;27.548;2023-05-21T09:45:50;2.75;;;2.10;;
48805;SDS011;34625;47.176;27.548;2023-05-21T09:48:38;2.75;;;2.22;;
48805;SDS011;34625;47.176;27.548;2023-05-21T09:51:13;3.60;;;1.90;;
48805;SDS011;34625;47.176;27.548;2023-05-21T09:56:09;5.72;;;2.20;;
48805;SDS011;34625;47.176;27.548;2023-05-21T09:58:36;3.20;;;2.50;;
48805;SDS011;34625;47.176;27.548;2023-05-21T10:01:02;4.32;;;1.90;;
48805;SDS011;34625;47.176;27.548;2023-05-21T10:03:29;5.20;;;2.60;;
48805;SDS011;34625;47.176;27.548;2023-05-21T10:05:57;2.13;;;1.95;;
48805;SDS011;34625;47.176;27.548;2023-05-21T10:08:25;4.68;;;2.17;;
48805;SDS011;34625;47.176;27.548;2023-05-21T10:10:54;2.30;;;2.00;;
48805;SDS011;34625;47.176;27.548;2023-05-21T10:13:20;2.30;;;2.20;;
48805;SDS011;34625;47.176;27.548;2023-05-21T10:15:49;3.67;;;2.60;;
48805;SDS011;34625;47.176;27.548;2023-05-21T10:18:21;3.50;;;2.72;;
48805;SDS011;34625;47.176;27.548;2023-05-21T10:20:48;3.10;;;2.78;;
48805;SDS011;34625;47.176;27.548;2023-05-21T10:23:17;4.63;;;2.75;;
48805;SDS011;34625;47.176;27.548;2023-05-21T10:25:44;4.78;;;3.00;;
48805;SDS011;34625;47.176;27.548;2023-05-21T10:28:12;3.88;;;2.60;;
48805;SDS011;34625;47.176;27.548;2023-05-21T10:30:42;3.70;;;2.38;;
48805;SDS011;34625;47.176;27.548;2023-05-21T10:33:16;2.35;;;2.10;;
48805;SDS011;34625;47.176;27.548;2023-05-21T10:35:43;3.13;;;2.60;;
48805;SDS011;34625;47.176;27.548;2023-05-21T10:38:11;6.45;;;1.90;;
48805;SDS011;34625;47.176;27.548;2023-05-21T10:40:38;4.72;;;2.70;;
48805;SDS011;34625;47.176;27.548;2023-05-21T10:45:52;4.53;;;1.85;;
48805;SDS011;34625;47.176;27.548;2023-05-21T11:02:12;4.38;;;1.92;;
48805;SDS011;34625;47.176;27.548;2023-05-21T11:04:40;5.00;;;2.58;;
48805;SDS011;34625;47.176;27.548;2023-05-21T11:07:09;3.83;;;1.75;;
48805;SDS011;34625;47.176;27.548;2023-05-21T11:09:37;3.90;;;2.58;;
48805;SDS011;34625;47.176;27.548;2023-05-21T11:12:03;4.80;;;2.70;;
48805;SDS011;34625;47.176;27.548;2023-05-21T11:17:08;4.47;;;2.05;;
48805;SDS011;34625;47.176;27.548;2023-05-21T11:19:42;3.42;;;2.17;;
48805;SDS011;34625;47.176;27.548;2023-05-21T11:22:30;2.53;;;2.10;;
48805;SDS011;34625;47.176;27.548;2023-05-21T11:25:00;4.80;;;1.73;;
48805;SDS011;34625;47.176;27.548;2023-05-21T11:27:31;3.33;;;2.47;;
48805;SDS011;34625;47.176;27.548;2023-05-21T11:35:37;4.35;;;2.30;;
48805;SDS011;34625;47.176;27.548;2023-05-21T11:38:19;4.63;;;2.65;;
48805;SDS011;34625;47.176;27.548;2023-05-21T11:40:49;6.30;;;3.45;;
48805;SDS011;34625;47.176;27.548;2023-05-21T11:43:19;6.90;;;2.70;;
48805;SDS011;34625;47.176;27.548;2023-05-21T11:45:45;3.83;;;2.40;;
48805;SDS011;34625;47.176;27.548;2023-05-21T11:48:14;9.32;;;3.00;;
48805;SDS011;34625;47.176;27.548;2023-05-21T11:50:41;3.25;;;2.63;;
48805;SDS011;34625;47.176;27.548;2023-05-21T11:53:10;7.45;;;3.17;;
48805;SDS011;34625;47.176;27.548;2023-05-21T11:55:37;3.90;;;2.30;;
48805;SDS011;34625;47.176;27.548;2023-05-21T11:58:08;3.58;;;2.72;;
48805;SDS011;34625;47.176;27.548;2023-05-21T12:00:38;6.47;;;2.92;;
48805;SDS011;34625;47.176;27.548;2023-05-21T12:03:04;5.82;;;2.85;;
48805;SDS011;34625;47.176;27.548;2023-05-21T12:05:44;5.53;;;2.25;;
48805;SDS011;34625;47.176;27.548;2023-05-21T12:08:20;2.92;;;1.70;;
48805;SDS011;34625;47.176;27.548;2023-05-21T12:10:53;5.80;;;2.58;;
48805;SDS011;34625;47.176;27.548;2023-05-21T12:13:22;3.78;;;2.75;;
48805;SDS011;34625;47.176;27.548;2023-05-21T12:15:51;8.98;;;3.30;;
48805;SDS011;34625;47.176;27.548;2023-05-21T12:18:18;4.68;;;2.85;;
48805;SDS011;34625;47.176;27.548;2023-05-21T12:20:45;3.08;;;2.20;;
48805;SDS011;34625;47.176;27.548;2023-05-21T12:23:18;4.43;;;2.38;;
48805;SDS011;34625;47.176;27.548;2023-05-21T12:25:50;2.47;;;1.98;;
48805;SDS011;34625;47.176;27.548;2023-05-21T12:28:19;3.88;;;2.20;;
48805;SDS011;34625;47.176;27.548;2023-05-21T12:30:46;3.42;;;2.22;;
48805;SDS011;34625;47.176;27.548;2023-05-21T12:33:12;7.05;;;1.88;;
48805;SDS011;34625;47.176;27.548;2023-05-21T12:35:38;7.10;;;2.65;;
48805;SDS011;34625;47.176;27.548;2023-05-21T12:38:05;3.67;;;2.08;;
48805;SDS011;34625;47.176;27.548;2023-05-21T12:40:35;3.63;;;2.08;;
48805;SDS011;34625;47.176;27.548;2023-05-21T12:43:02;2.40;;;2.20;;
48805;SDS011;34625;47.176;27.548;2023-05-21T12:45:29;2.55;;;1.55;;
48805;SDS011;34625;47.176;27.548;2023-05-21T12:47:56;2.20;;;2.00;;
48805;SDS011;34625;47.176;27.548;2023-05-21T12:50:25;2.38;;;1.92;;
48805;SDS011;34625;47.176;27.548;2023-05-21T12:52:54;6.47;;;1.92;;
48805;SDS011;34625;47.176;27.548;2023-05-21T12:55:22;3.80;;;2.13;;
48805;SDS011;34625;47.176;27.548;2023-05-21T12:57:58;2.58;;;1.67;;
48805;SDS011;34625;47.176;27.548;2023-05-21T13:00:30;4.38;;;2.35;;
48805;SDS011;34625;47.176;27.548;2023-05-21T13:02:57;3.72;;;2.13;;
48805;SDS011;34625;47.176;27.548;2023-05-21T13:05:25;3.60;;;1.95;;
48805;SDS011;34625;47.176;27.548;2023-05-21T13:07:51;7.40;;;2.05;;
48805;SDS011;34625;47.176;27.548;2023-05-21T13:10:17;3.45;;;1.90;;
48805;SDS011;34625;47.176;27.548;2023-05-21T13:12:43;1.95;;;1.58;;
48805;SDS011;34625;47.176;27.548;2023-05-21T13:15:09;2.13;;;1.70;;
48805;SDS011;34625;47.176;27.548;2023-05-21T13:17:35;4.07;;;2.38;;
48805;SDS011;34625;47.176;27.548;2023-05-21T13:20:08;4.47;;;2.30;;
48805;SDS011;34625;47.176;27.548;2023-05-21T13:22:39;1.75;;;1.65;;
48805;SDS011;34625;47.176;27.548;2023-05-21T13:25:11;2.90;;;2.00;;
48805;SDS011;34625;47.176;27.548;2023-05-21T13:27:42;3.38;;;1.67;;
48805;SDS011;34625;47.176;27.548;2023-05-21T13:30:09;3.38;;;1.92;;
48805;SDS011;34625;47.176;27.548;2023-05-21T13:32:36;2.88;;;1.83;;
48805;SDS011;34625;47.176;27.548;2023-05-21T13:35:03;1.92;;;1.77;;
48805;SDS011;34625;47.176;27.548;2023-05-21T13:37:29;3.15;;;1.70;;
48805;SDS011;34625;47.176;27.548;2023-05-21T13:39:56;2.22;;;1.83;;
48805;SDS011;34625;47.176;27.548;2023-05-21T13:42:22;3.20;;;2.35;;
48805;SDS011;34625;47.176;27.548;2023-05-21T13:44:48;3.55;;;1.58;;
48805;SDS011;34625;47.176;27.548;2023-05-21T13:47:14;4.40;;;2.22;;
48805;SDS011;34625;47.176;27.548;2023-05-21T13:49:41;6.60;;;2.17;;
48805;SDS011;34625;47.176;27.548;2023-05-21T13:52:07;3.63;;;2.40;;
48805;SDS011;34625;47.176;27.548;2023-05-21T13:54:34;7.50;;;1.88;;
48805;SDS011;34625;47.176;27.548;2023-05-21T13:57:01;2.33;;;1.90;;
48805;SDS011;34625;47.176;27.548;2023-05-21T13:59:27;4.53;;;2.35;;
48805;SDS011;34625;47.176;27.548;2023-05-21T14:01:53;3.88;;;2.22;;
48805;SDS011;34625;47.176;27.548;2023-05-21T14:04:20;2.35;;;1.58;;
48805;SDS011;34625;47.176;27.548;2023-05-21T14:06:46;3.35;;;1.70;;
48805;SDS011;34625;47.176;27.548;2023-05-21T14:09:12;10.90;;;2.25;;
48805;SDS011;34625;47.176;27.548;2023-05-21T14:11:38;2.60;;;1.80;;
48805;SDS011;34625;47.176;27.548;2023-05-21T14:14:04;6.55;;;2.33;;
48805;SDS011;34625;47.176;27.548;2023-05-21T14:16:30;5.10;;;1.95;;
48805;SDS011;34625;47.176;27.548;2023-05-21T14:18:56;6.20;;;2.38;;
48805;SDS011;34625;47.176;27.548;2023-05-21T14:21:23;2.42;;;1.88;;
48805;SDS011;34625;47.176;27.548;2023-05-21T14:23:49;3.28;;;1.85;;
48805;SDS011;34625;47.176;27.548;2023-05-21T14:26:15;4.13;;;1.92;;
48805;SDS011;34625;47.176;27.548;2023-05-21T14:28:42;3.78;;;2.35;;
48805;SDS011;34625;47.176;27.548;2023-05-21T14:31:09;2.53;;;1.80;;
48805;SDS011;34625;47.176;27.548;2023-05-21T14:33:36;3.50;;;1.98;;
48805;SDS011;34625;47.176;27.548;2023-05-21T14:36:03;3.70;;;2.05;;
48805;SDS011;34625;47.176;27.548;2023-05-21T14:38:30;2.70;;;2.10;;
48805;SDS011;34625;47.176;27.548;2023-05-21T14:40:56;1.92;;;1.50;;
48805;SDS011;34625;47.176;27.548;2023-05-21T14:43:22;3.45;;;1.55;;
48805;SDS011;34625;47.176;27.548;2023-05-21T14:45:48;3.05;;;1.83;;
48805;SDS011;34625;47.176;27.548;2023-05-21T14:48:18;2.13;;;1.75;;
48805;SDS011;34625;47.176;27.548;2023-05-21T14:50:47;7.57;;;3.53;;
48805;SDS011;34625;47.176;27.548;2023-05-21T14:53:15;1.67;;;1.55;;
48805;SDS011;34625;47.176;27.548;2023-05-21T14:55:41;2.25;;;1.85;;
48805;SDS011;34625;47.176;27.548;2023-05-21T14:58:07;2.30;;;1.88;;
48805;SDS011;34625;47.176;27.548;2023-05-21T15:00:34;4.20;;;1.98;;
48805;SDS011;34625;47.176;27.548;2023-05-21T15:03:01;2.42;;;1.92;;
48805;SDS011;34625;47.176;27.548;2023-05-21T15:05:27;5.20;;;2.50;;
48805;SDS011;34625;47.176;27.548;2023-05-21T15:07:54;8.57;;;2.10;;
48805;SDS011;34625;47.176;27.548;2023-05-21T15:10:24;2.38;;;1.58;;
48805;SDS011;34625;47.176;27.548;2023-05-21T15:12:51;4.05;;;2.30;;